LGSA/CHQ METAR and TAF weather

Enter ICAO airport designator
Station Type Date Time Source
LGSA METAR 2022/01/25 05:50 UTC NOAA

LGSA 250550Z 02016G26KT 8000 -SNRA SCT006 BKN011 FEW018TCU OVC070 05/02 Q1016


Station Type Date Time Source
LGSA Decoded METAR 2022/01/25 05:50 UTC NOAA

Souda Airport , Greece (LGSA) 35-29N 024-07E 151M
Jan 25, 2022 - 12:50 AM EST / 2022.01.25 0550 UTC
Wind: from the NNE (020 degrees) at 18 MPH (16 KT) gusting to 30 MPH (26 KT):0
Visibility: 4 mile(s):0
Sky conditions: overcast
Weather: light snow, rain; Towering cumulus clouds observed
Temperature: 41 F (5 C)
Dew Point: 35 F (2 C)
Relative Humidity: 80%
Pressure (altimeter): 30.00 in. Hg (1016 hPa)
ob: LGSA 250550Z 02016G26KT 8000 -SNRA SCT006 BKN011 FEW018TCU OVC070 05/02 Q1016
cycle: 6

Station Type Date Time Source
LGSA TAF 2022/01/25 06:16 UTC NOAA

TAF LGSA 250500Z 2506/2606 03016KT 9999 SCT004 BKN011 FEW018TCU OVC070
TEMPO 2509/2518 03016G26KT
BECMG 2521/2523 33016KT PROB40
TEMPO 2506/2606 4000 SN PROB30
TEMPO 2506/2510 1000 TSSN BKN010 SCT018CB OVC060

Example: see airport list